createdAt,value
2018-11-29T03:14:07.310Z,1008.21
2018-11-29T03:15:07.266Z,1008.20
2018-11-29T03:16:07.274Z,1008.20
2018-11-29T03:17:07.234Z,1008.22
2018-11-29T03:18:07.233Z,1008.24
2018-11-29T03:19:07.214Z,1008.26
2018-11-29T03:20:07.201Z,1008.29
2018-11-29T03:21:07.207Z,1008.26
2018-11-29T03:22:07.173Z,1008.31
2018-11-29T03:23:07.155Z,1008.30
2018-11-29T03:24:07.151Z,1008.27
2018-11-29T03:25:07.135Z,1008.28
2018-11-29T03:26:07.161Z,1008.28
2018-11-29T03:27:07.144Z,1008.24
2018-11-29T03:28:07.280Z,1008.20
2018-11-29T03:29:07.142Z,1008.23
2018-11-29T03:30:07.085Z,1008.24
2018-11-29T03:31:07.084Z,1008.23
2018-11-29T03:32:07.082Z,1008.21
2018-11-29T03:33:07.094Z,1008.23
2018-11-29T03:34:07.079Z,1008.20
2018-11-29T03:35:07.070Z,1008.18
2018-11-29T03:36:07.022Z,1008.16
2018-11-29T03:37:07.014Z,1008.16
2018-11-29T03:38:07.052Z,1008.19
2018-11-29T03:39:07.017Z,1008.20
2018-11-29T03:40:07.025Z,1008.16
2018-11-29T03:41:07.019Z,1008.19
2018-11-29T03:42:06.983Z,1008.18
2018-11-29T03:43:06.956Z,1008.14
2018-11-29T03:44:06.961Z,1008.19
2018-11-29T03:45:06.947Z,1008.12
2018-11-29T03:46:06.964Z,1008.13
2018-11-29T03:47:06.922Z,1008.08
2018-11-29T03:48:06.909Z,1008.13
2018-11-29T03:49:06.897Z,1008.11
2018-11-29T03:50:06.900Z,1008.09
2018-11-29T03:51:06.874Z,1008.22
2018-11-29T03:52:06.869Z,1008.19
2018-11-29T03:53:06.872Z,1008.19
2018-11-29T03:54:06.860Z,1008.22
2018-11-29T03:55:06.839Z,1008.23
2018-11-29T03:56:06.835Z,1008.21
2018-11-29T03:57:06.849Z,1008.19
2018-11-29T03:58:06.808Z,1008.23
2018-11-29T03:59:06.840Z,1008.21
2018-11-29T04:00:06.795Z,1008.23
2018-11-29T04:01:06.790Z,1008.21
2018-11-29T04:02:06.807Z,1008.22
2018-11-29T04:03:06.787Z,1008.24
2018-11-29T04:04:06.797Z,1008.24
2018-11-29T04:05:06.743Z,1008.35
2018-11-29T04:06:08.810Z,1008.35
2018-11-29T04:07:17.646Z,1008.35
2018-11-29T04:08:08.053Z,1008.35
2018-11-29T04:09:06.713Z,1008.34
2018-11-29T04:10:06.707Z,1008.32
2018-11-29T04:11:06.687Z,1008.31
2018-11-29T04:12:06.682Z,1008.26
2018-11-29T04:13:06.677Z,1008.25
2018-11-29T04:14:06.661Z,1008.28
2018-11-29T04:15:06.652Z,1008.30
2018-11-29T04:16:06.646Z,1008.32
2018-11-29T04:17:06.683Z,1008.32
2018-11-29T04:18:06.633Z,1008.38
2018-11-29T04:19:06.612Z,1008.33
2018-11-29T04:20:06.603Z,1008.33
2018-11-29T04:21:06.600Z,1008.29
2018-11-29T04:22:06.593Z,1008.31
2018-11-29T04:23:06.603Z,1008.28
2018-11-29T04:24:06.569Z,1008.24
2018-11-29T04:25:06.552Z,1008.22
2018-11-29T04:26:06.552Z,1008.21
2018-11-29T04:27:06.541Z,1008.23
2018-11-29T04:28:06.542Z,1008.18
2018-11-29T04:29:06.536Z,1008.12
2018-11-29T04:30:06.530Z,1008.09
2018-11-29T04:31:15.142Z,1008.08
2018-11-29T04:32:59.911Z,1008.05
2018-11-29T04:33:59.888Z,1008.06
2018-11-29T04:34:59.875Z,1008.03
2018-11-29T04:37:20.929Z,1008.03
2018-11-29T04:38:20.883Z,1008.09
2018-11-29T04:39:29.487Z,1008.11
2018-11-29T04:41:14.236Z,1008.13
2018-11-29T04:42:14.207Z,1008.13
2018-11-29T04:43:14.210Z,1008.14
2018-11-29T04:44:14.208Z,1008.13
2018-11-29T04:45:14.202Z,1008.08
2018-11-29T04:46:14.168Z,1008.08
2018-11-29T04:47:14.170Z,1008.06
2018-11-29T04:48:14.149Z,1008.05
2018-11-29T04:49:14.175Z,1008.04
2018-11-29T04:50:14.157Z,1007.99
2018-11-29T04:51:14.123Z,1007.98
2018-11-29T04:52:14.157Z,1007.96
2018-11-29T04:53:14.101Z,1007.91
2018-11-29T04:54:14.110Z,1007.90
2018-11-29T04:55:14.113Z,1007.88
2018-11-29T04:56:14.105Z,1007.87
2018-11-29T04:57:14.063Z,1007.83
2018-11-29T04:58:14.060Z,1007.82
2018-11-29T04:59:14.055Z,1007.81
2018-11-29T05:00:14.043Z,1007.78
2018-11-29T05:01:14.057Z,1007.82
2018-11-29T05:02:14.067Z,1007.81
2018-11-29T05:03:14.047Z,1007.83
2018-11-29T05:04:14.004Z,1007.78
2018-11-29T05:05:14.051Z,1007.78
2018-11-29T05:06:13.997Z,1007.78
2018-11-29T05:07:13.997Z,1007.82
2018-11-29T05:08:13.974Z,1007.79
2018-11-29T05:09:13.949Z,1007.75
2018-11-29T05:10:13.941Z,1007.76
2018-11-29T05:11:13.926Z,1007.74
2018-11-29T05:12:13.924Z,1007.74
2018-11-29T05:13:13.919Z,1007.70
2018-11-29T05:14:13.929Z,1007.68
2018-11-29T05:15:13.887Z,1007.65
2018-11-29T05:16:13.965Z,1007.65
2018-11-29T05:17:13.876Z,1007.67
2018-11-29T05:18:13.862Z,1007.63
2018-11-29T05:19:13.867Z,1007.59
2018-11-29T05:20:13.859Z,1007.56
2018-11-29T05:21:13.829Z,1007.58
2018-11-29T05:22:13.813Z,1007.48
2018-11-29T05:23:13.810Z,1007.49
2018-11-29T05:24:13.799Z,1007.47
2018-11-29T05:25:13.815Z,1007.43
2018-11-29T05:26:13.803Z,1007.47
2018-11-29T05:27:13.799Z,1007.43
2018-11-29T05:28:13.759Z,1007.42
2018-11-29T05:29:13.751Z,1007.36
2018-11-29T05:30:13.772Z,1007.33
2018-11-29T05:31:13.761Z,1007.31
2018-11-29T05:32:13.765Z,1007.32
2018-11-29T05:33:13.704Z,1007.32
2018-11-29T05:34:13.697Z,1007.33
2018-11-29T05:35:13.690Z,1007.33
2018-11-29T05:36:22.324Z,1007.30
2018-11-29T05:38:07.094Z,1007.32
2018-11-29T05:39:07.045Z,1007.31
2018-11-29T05:40:07.036Z,1007.26
2018-11-29T05:41:07.035Z,1007.23
2018-11-29T05:42:07.033Z,1007.24
2018-11-29T05:43:07.011Z,1007.23
2018-11-29T05:44:06.997Z,1007.29
2018-11-29T05:45:07.006Z,1007.23
2018-11-29T05:46:06.981Z,1007.26
2018-11-29T05:47:06.964Z,1007.25
2018-11-29T05:48:06.972Z,1007.25
2018-11-29T05:49:06.943Z,1007.21
2018-11-29T05:50:06.937Z,1007.23
2018-11-29T05:51:06.932Z,1007.24
2018-11-29T05:52:06.925Z,1007.25
2018-11-29T05:53:06.909Z,1007.26
2018-11-29T05:54:06.919Z,1007.25
2018-11-29T05:55:06.884Z,1007.25
2018-11-29T05:56:06.891Z,1007.25
2018-11-29T05:57:06.860Z,1007.23
2018-11-29T05:58:06.861Z,1007.22
2018-11-29T05:59:06.861Z,1007.23
2018-11-29T06:00:06.832Z,1007.18
2018-11-29T06:01:06.824Z,1007.22
2018-11-29T06:02:06.814Z,1007.20
2018-11-29T06:03:06.802Z,1007.17
2018-11-29T06:04:06.796Z,1007.18
2018-11-29T06:05:06.808Z,1007.17
2018-11-29T06:06:06.777Z,1007.23
2018-11-29T06:07:06.756Z,1007.12
2018-11-29T06:08:06.770Z,1007.18
2018-11-29T06:09:06.749Z,1007.19
2018-11-29T06:10:06.755Z,1007.17
2018-11-29T06:11:06.738Z,1007.18
2018-11-29T06:12:06.724Z,1007.19
2018-11-29T06:13:06.725Z,1007.22
2018-11-29T06:14:06.756Z,1007.22
2018-11-29T06:15:06.685Z,1007.19
2018-11-29T06:16:06.687Z,1007.21
2018-11-29T06:17:06.681Z,1007.16
2018-11-29T06:18:06.682Z,1007.12
2018-11-29T06:19:06.635Z,1007.12
2018-11-29T06:20:06.645Z,1006.98
2018-11-29T06:21:06.612Z,1006.99
2018-11-29T06:22:06.614Z,1007.00
2018-11-29T06:23:06.601Z,1006.92
2018-11-29T06:24:06.616Z,1006.92
2018-11-29T06:25:06.575Z,1006.95
2018-11-29T06:26:06.591Z,1006.94
2018-11-29T06:27:06.554Z,1006.98
2018-11-29T06:28:06.559Z,1006.94
2018-11-29T06:29:06.578Z,1006.94
2018-11-29T06:30:06.541Z,1006.98
2018-11-29T06:31:06.540Z,1007.03
2018-11-29T06:32:06.494Z,1006.99
2018-11-29T06:33:06.494Z,1006.94
2018-11-29T06:34:06.475Z,1007.00
2018-11-29T06:35:06.495Z,1006.91
2018-11-29T06:36:06.446Z,1006.98
2018-11-29T06:37:06.439Z,1006.88
2018-11-29T06:38:06.443Z,1006.88
2018-11-29T06:39:06.504Z,1006.90
2018-11-29T06:40:06.439Z,1006.78
2018-11-29T06:41:06.439Z,1006.81
2018-11-29T06:42:06.388Z,1006.80
2018-11-29T06:43:06.381Z,1006.76
2018-11-29T06:44:06.388Z,1006.81
2018-11-29T06:45:06.384Z,1006.83
2018-11-29T06:46:06.376Z,1006.85
2018-11-29T06:47:06.367Z,1006.84
2018-11-29T06:48:06.326Z,1006.88
2018-11-29T06:49:06.379Z,1006.91
2018-11-29T06:50:06.307Z,1006.97
2018-11-29T06:51:06.322Z,1006.97
2018-11-29T06:52:06.314Z,1006.97
2018-11-29T06:53:06.279Z,1006.99
2018-11-29T06:54:06.383Z,1006.95
2018-11-29T06:55:06.307Z,1006.92
2018-11-29T06:56:06.237Z,1006.89
2018-11-29T06:57:06.248Z,1006.91
2018-11-29T06:58:06.289Z,1006.86
2018-11-29T06:59:06.234Z,1006.81
2018-11-29T07:00:06.251Z,1006.80
2018-11-29T07:01:06.227Z,1006.77
2018-11-29T07:02:06.183Z,1006.71
2018-11-29T07:03:06.178Z,1006.74
2018-11-29T07:04:06.209Z,1006.71
2018-11-29T07:05:06.168Z,1006.72
2018-11-29T07:06:06.139Z,1006.69
2018-11-29T07:07:06.197Z,1006.70
2018-11-29T07:08:06.120Z,1006.62
2018-11-29T07:09:06.230Z,1006.69
2018-11-29T07:10:06.143Z,1006.62
2018-11-29T07:11:06.195Z,1006.65
2018-11-29T07:12:06.075Z,1006.64
2018-11-29T07:13:06.082Z,1006.62
2018-11-29T07:14:06.112Z,1006.62
2018-11-29T07:15:06.082Z,1006.65
2018-11-29T07:16:06.074Z,1006.61
2018-11-29T07:17:06.081Z,1006.63
2018-11-29T07:18:06.063Z,1006.66
2018-11-29T07:19:06.069Z,1006.65
2018-11-29T07:20:06.021Z,1006.68
2018-11-29T07:21:06.016Z,1006.69
2018-11-29T07:22:06.007Z,1006.71
2018-11-29T07:23:06.020Z,1006.70
2018-11-29T07:24:05.960Z,1006.73
2018-11-29T07:25:05.947Z,1006.75
2018-11-29T07:26:05.931Z,1006.76
2018-11-29T07:27:05.962Z,1006.76
2018-11-29T07:28:05.961Z,1006.78
2018-11-29T07:29:06.034Z,1006.72
2018-11-29T07:30:05.945Z,1006.74
2018-11-29T07:31:05.933Z,1006.72
2018-11-29T07:32:05.966Z,1006.75
2018-11-29T07:33:05.891Z,1006.76
2018-11-29T07:34:05.958Z,1006.79
2018-11-29T07:35:05.869Z,1006.82
2018-11-29T07:36:05.891Z,1006.83
2018-11-29T07:37:05.893Z,1006.86
2018-11-29T07:38:05.843Z,1006.83
2018-11-29T07:39:05.814Z,1006.85
2018-11-29T07:40:05.817Z,1006.80
2018-11-29T07:41:05.849Z,1006.77
2018-11-29T07:42:05.855Z,1006.76
2018-11-29T07:43:05.848Z,1006.71
2018-11-29T07:44:05.793Z,1006.73
2018-11-29T07:45:05.771Z,1006.75
2018-11-29T07:46:05.768Z,1006.73
2018-11-29T07:47:05.803Z,1006.68
2018-11-29T07:48:05.849Z,1006.70
2018-11-29T07:49:05.716Z,1006.63
2018-11-29T07:50:15.364Z,1006.64
2018-11-29T07:52:07.778Z,1006.62
2018-11-29T07:52:59.148Z,1006.59
2018-11-29T07:53:59.085Z,1006.56
2018-11-29T07:54:59.065Z,1006.59
2018-11-29T07:57:31.138Z,1006.56
2018-11-29T07:58:21.073Z,1006.56
2018-11-29T07:59:21.178Z,1006.57
2018-11-29T08:00:21.094Z,1006.55
2018-11-29T08:01:21.024Z,1006.56
2018-11-29T08:02:21.079Z,1006.58
2018-11-29T08:03:21.042Z,1006.55
2018-11-29T08:04:20.999Z,1006.61
2018-11-29T08:05:21.031Z,1006.58
2018-11-29T08:06:21.033Z,1006.62
2018-11-29T08:07:21.012Z,1006.61
2018-11-29T08:08:20.998Z,1006.59
2018-11-29T08:09:20.984Z,1006.55
2018-11-29T08:10:20.947Z,1006.54
2018-11-29T08:11:20.944Z,1006.56
2018-11-29T08:12:20.974Z,1006.57
2018-11-29T08:13:20.923Z,1006.60
2018-11-29T08:14:20.924Z,1006.59
2018-11-29T08:15:20.903Z,1006.59
2018-11-29T08:16:20.943Z,1006.58
2018-11-29T08:17:20.900Z,1006.58
2018-11-29T08:18:20.870Z,1006.56
2018-11-29T08:19:20.862Z,1006.51
2018-11-29T08:20:20.913Z,1006.50
2018-11-29T08:21:20.902Z,1006.44
2018-11-29T08:22:20.827Z,1006.44
2018-11-29T08:23:20.845Z,1006.40
2018-11-29T08:24:20.819Z,1006.44
2018-11-29T08:25:20.869Z,1006.44
2018-11-29T08:26:20.794Z,1006.44
2018-11-29T08:27:20.792Z,1006.40
2018-11-29T08:28:20.794Z,1006.45
2018-11-29T08:29:20.762Z,1006.42
2018-11-29T08:30:20.797Z,1006.41
2018-11-29T08:31:20.764Z,1006.40
2018-11-29T08:32:20.734Z,1006.35
2018-11-29T08:33:20.728Z,1006.37
2018-11-29T08:34:20.746Z,1006.36
2018-11-29T08:35:20.745Z,1006.34
2018-11-29T08:36:20.721Z,1006.35
2018-11-29T08:37:20.716Z,1006.34
2018-11-29T08:38:20.677Z,1006.34
2018-11-29T08:39:20.676Z,1006.34
2018-11-29T08:40:20.671Z,1006.37
2018-11-29T08:41:20.649Z,1006.42
2018-11-29T08:42:20.660Z,1006.43
2018-11-29T08:43:20.650Z,1006.47
2018-11-29T08:44:20.619Z,1006.48
2018-11-29T08:45:20.620Z,1006.46
2018-11-29T08:46:20.599Z,1006.47
2018-11-29T08:47:20.600Z,1006.46
2018-11-29T08:48:20.601Z,1006.50
2018-11-29T08:49:21.269Z,1006.50
2018-11-29T08:50:20.570Z,1006.48
2018-11-29T08:51:20.560Z,1006.52
2018-11-29T08:52:20.557Z,1006.50
2018-11-29T08:53:20.587Z,1006.51
2018-11-29T08:54:20.534Z,1006.56
2018-11-29T08:55:20.554Z,1006.59
2018-11-29T08:56:20.530Z,1006.62
2018-11-29T08:57:20.572Z,1006.66
2018-11-29T08:58:20.493Z,1006.65
2018-11-29T08:59:20.498Z,1006.64
2018-11-29T09:00:20.497Z,1006.58
2018-11-29T09:01:20.507Z,1006.58
2018-11-29T09:02:20.461Z,1006.59
2018-11-29T09:03:20.482Z,1006.55
2018-11-29T09:04:20.446Z,1006.54
2018-11-29T09:05:21.347Z,1006.51
2018-11-29T09:06:20.438Z,1006.48
2018-11-29T09:07:20.424Z,1006.45
2018-11-29T09:08:20.442Z,1006.43
2018-11-29T09:09:20.432Z,1006.41
2018-11-29T09:10:20.395Z,1006.40
2018-11-29T09:11:20.385Z,1006.34
2018-11-29T09:12:20.379Z,1006.34
2018-11-29T09:13:20.373Z,1006.38
2018-11-29T09:14:20.358Z,1006.34
2018-11-29T09:15:20.371Z,1006.33
2018-11-29T09:16:20.382Z,1006.31
2018-11-29T09:17:20.363Z,1006.38
2018-11-29T09:18:20.323Z,1006.38
2018-11-29T09:19:20.323Z,1006.42
2018-11-29T09:20:20.346Z,1006.42
2018-11-29T09:21:20.315Z,1006.42
2018-11-29T09:22:20.297Z,1006.45
2018-11-29T09:23:20.311Z,1006.42
2018-11-29T09:24:20.276Z,1006.39
2018-11-29T09:25:20.273Z,1006.43
2018-11-29T09:26:20.284Z,1006.45
2018-11-29T09:27:20.311Z,1006.47
2018-11-29T09:28:20.286Z,1006.50
2018-11-29T09:29:20.255Z,1006.51
2018-11-29T09:30:20.233Z,1006.50
2018-11-29T09:31:20.214Z,1006.49
2018-11-29T09:32:20.207Z,1006.49
2018-11-29T09:33:20.273Z,1006.44
2018-11-29T09:34:20.229Z,1006.38
2018-11-29T09:35:20.204Z,1006.30
2018-11-29T09:36:21.827Z,1006.23
2018-11-29T09:37:20.191Z,1006.17
2018-11-29T09:38:20.169Z,1006.11
2018-11-29T09:39:20.206Z,1006.10
2018-11-29T09:40:20.158Z,1006.13
2018-11-29T09:41:20.177Z,1006.12
2018-11-29T09:42:20.151Z,1006.10
2018-11-29T09:43:20.156Z,1006.14
2018-11-29T09:44:20.139Z,1006.09
2018-11-29T09:45:20.125Z,1006.07
2018-11-29T09:46:20.173Z,1006.06
2018-11-29T09:47:20.118Z,1006.05
2018-11-29T09:48:20.128Z,1006.10
2018-11-29T09:49:20.084Z,1006.13
2018-11-29T09:50:20.134Z,1006.17
2018-11-29T09:51:20.049Z,1006.18
2018-11-29T09:52:20.043Z,1006.24
2018-11-29T09:53:20.122Z,1006.19
2018-11-29T09:54:20.078Z,1006.25
2018-11-29T09:55:20.025Z,1006.24
2018-11-29T09:56:20.033Z,1006.21
2018-11-29T09:57:19.998Z,1006.21
2018-11-29T09:58:20.054Z,1006.24
2018-11-29T09:59:20.068Z,1006.26
2018-11-29T10:00:27.092Z,1006.29
2018-11-29T10:01:20.062Z,1006.31
2018-11-29T10:02:19.979Z,1006.30
2018-11-29T10:03:19.982Z,1006.33
2018-11-29T10:04:19.999Z,1006.37
2018-11-29T10:05:19.939Z,1006.40
2018-11-29T10:06:19.942Z,1006.42
2018-11-29T10:07:19.974Z,1006.41
2018-11-29T10:08:25.917Z,1006.46
2018-11-29T10:09:19.980Z,1006.40
2018-11-29T10:10:20.046Z,1006.39
2018-11-29T10:11:19.969Z,1006.35
2018-11-29T10:12:19.917Z,1006.31
2018-11-29T10:13:19.900Z,1006.35
2018-11-29T10:14:19.907Z,1006.32
2018-11-29T10:15:29.173Z,1006.31
2018-11-29T10:17:14.297Z,1006.30
2018-11-29T10:18:14.270Z,1006.30
2018-11-29T10:19:14.247Z,1006.34
2018-11-29T10:20:14.230Z,1006.29
2018-11-29T10:21:14.265Z,1006.26
2018-11-29T10:22:14.229Z,1006.30
2018-11-29T10:23:14.205Z,1006.27
2018-11-29T10:24:14.215Z,1006.30
2018-11-29T10:25:14.204Z,1006.35
2018-11-29T10:26:14.247Z,1006.30
2018-11-29T10:27:14.230Z,1006.31
2018-11-29T10:28:14.208Z,1006.27
2018-11-29T10:29:14.233Z,1006.27
2018-11-29T10:30:14.218Z,1006.29
2018-11-29T10:31:14.178Z,1006.24
2018-11-29T10:32:14.149Z,1006.23
2018-11-29T10:33:14.138Z,1006.18
2018-11-29T10:34:14.149Z,1006.14
2018-11-29T10:35:14.171Z,1006.13
2018-11-29T10:36:14.129Z,1006.16
2018-11-29T10:37:14.151Z,1006.18
2018-11-29T10:38:14.144Z,1006.15
2018-11-29T10:39:14.098Z,1006.21
2018-11-29T10:40:14.169Z,1006.22
2018-11-29T10:41:14.109Z,1006.22
2018-11-29T10:42:14.098Z,1006.22
2018-11-29T10:43:14.061Z,1006.18
2018-11-29T10:44:14.085Z,1006.18
2018-11-29T10:45:14.077Z,1006.16
2018-11-29T10:46:15.752Z,1006.14
2018-11-29T10:47:14.036Z,1006.18
2018-11-29T10:48:14.026Z,1006.16
2018-11-29T10:49:14.042Z,1006.19
2018-11-29T10:50:14.021Z,1006.19
2018-11-29T10:51:14.038Z,1006.19
2018-11-29T10:52:14.065Z,1006.22
2018-11-29T10:53:13.990Z,1006.24
2018-11-29T10:54:16.836Z,1006.18
2018-11-29T10:55:14.063Z,1006.21
2018-11-29T10:56:13.978Z,1006.18
2018-11-29T10:57:13.958Z,1006.19
2018-11-29T10:58:14.001Z,1006.18
2018-11-29T10:59:13.942Z,1006.15
2018-11-29T11:00:13.933Z,1006.13
2018-11-29T11:01:13.930Z,1006.09
2018-11-29T11:02:14.000Z,1006.10
2018-11-29T11:03:13.927Z,1006.05
2018-11-29T11:04:13.938Z,1006.09
2018-11-29T11:05:13.923Z,1006.11
2018-11-29T11:06:13.927Z,1006.11
2018-11-29T11:07:23.135Z,1006.08
2018-11-29T11:09:07.520Z,1006.04
2018-11-29T11:10:07.348Z,1006.06
2018-11-29T11:11:07.509Z,1006.05
2018-11-29T11:12:07.371Z,1006.01
2018-11-29T11:13:07.408Z,1005.96
2018-11-29T11:14:07.457Z,1005.95
2018-11-29T11:15:07.340Z,1005.89
2018-11-29T11:16:07.310Z,1005.95
2018-11-29T11:17:07.348Z,1005.91
2018-11-29T11:18:07.359Z,1005.94
2018-11-29T11:19:07.369Z,1005.88
2018-11-29T11:20:07.290Z,1005.95
2018-11-29T11:21:07.302Z,1005.91
2018-11-29T11:22:07.281Z,1005.91
2018-11-29T11:23:07.302Z,1005.90
2018-11-29T11:24:07.307Z,1005.89
2018-11-29T11:25:07.266Z,1005.90
2018-11-29T11:26:07.235Z,1005.91
2018-11-29T11:27:07.265Z,1005.91
2018-11-29T11:28:07.236Z,1005.92
2018-11-29T11:29:07.244Z,1005.96
2018-11-29T11:30:07.212Z,1005.94
2018-11-29T11:31:07.242Z,1005.89
2018-11-29T11:32:07.199Z,1005.84
2018-11-29T11:33:07.188Z,1005.82
2018-11-29T11:34:07.175Z,1005.76
2018-11-29T11:35:07.221Z,1005.73
2018-11-29T11:36:07.201Z,1005.70
2018-11-29T11:37:16.096Z,1005.70
2018-11-29T11:39:03.658Z,1005.68
2018-11-29T11:40:03.618Z,1005.70
2018-11-29T11:41:03.592Z,1005.69
2018-11-29T11:42:03.572Z,1005.71
2018-11-29T11:43:05.459Z,1005.71
2018-11-29T11:44:03.566Z,1005.67
2018-11-29T11:45:03.556Z,1005.68
2018-11-29T11:46:03.571Z,1005.68
2018-11-29T11:47:03.605Z,1005.68
2018-11-29T11:48:03.772Z,1005.67
2018-11-29T11:49:03.723Z,1005.68
2018-11-29T11:50:03.577Z,1005.64
2018-11-29T11:51:03.592Z,1005.66
2018-11-29T11:52:03.552Z,1005.60
2018-11-29T11:53:03.479Z,1005.63
2018-11-29T11:54:03.509Z,1005.62
2018-11-29T11:55:03.493Z,1005.68
2018-11-29T11:56:03.495Z,1005.66
2018-11-29T11:57:03.465Z,1005.62
2018-11-29T11:58:03.445Z,1005.63
2018-11-29T11:59:03.453Z,1005.57
2018-11-29T12:00:03.469Z,1005.58
2018-11-29T12:01:03.468Z,1005.58
2018-11-29T12:02:03.452Z,1005.55
2018-11-29T12:03:03.454Z,1005.58
2018-11-29T12:04:03.412Z,1005.63
2018-11-29T12:05:03.435Z,1005.58
2018-11-29T12:06:03.420Z,1005.58
2018-11-29T12:07:03.444Z,1005.62
2018-11-29T12:08:03.489Z,1005.58
2018-11-29T12:09:03.370Z,1005.57
2018-11-29T12:10:03.365Z,1005.56
2018-11-29T12:11:03.428Z,1005.52
2018-11-29T12:12:03.347Z,1005.49
2018-11-29T12:13:03.349Z,1005.48
2018-11-29T12:14:03.359Z,1005.48
2018-11-29T12:15:03.335Z,1005.44
2018-11-29T12:16:03.325Z,1005.41
2018-11-29T12:17:03.343Z,1005.44
2018-11-29T12:18:03.314Z,1005.46
2018-11-29T12:19:03.300Z,1005.46
2018-11-29T12:20:03.302Z,1005.44
2018-11-29T12:21:03.289Z,1005.35
2018-11-29T12:22:03.298Z,1005.42
2018-11-29T12:23:03.295Z,1005.38
2018-11-29T12:24:03.269Z,1005.42
2018-11-29T12:25:03.265Z,1005.41
2018-11-29T12:26:03.276Z,1005.33
2018-11-29T12:27:03.294Z,1005.32
2018-11-29T12:28:03.327Z,1005.31
2018-11-29T12:29:03.239Z,1005.27
2018-11-29T12:30:03.246Z,1005.27
2018-11-29T12:31:03.237Z,1005.24
2018-11-29T12:32:12.746Z,1005.23
2018-11-29T12:33:56.708Z,1005.19
2018-11-29T12:34:56.617Z,1005.18
2018-11-29T12:36:04.836Z,1005.16
2018-11-29T12:37:50.192Z,1005.08
2018-11-29T12:38:50.170Z,1005.06
2018-11-29T12:39:50.164Z,1005.04
2018-11-29T12:40:50.312Z,1005.04
2018-11-29T12:41:50.151Z,1005.01
2018-11-29T12:42:50.137Z,1004.99
2018-11-29T12:43:50.143Z,1004.94
2018-11-29T12:44:50.151Z,1004.96
2018-11-29T12:45:50.118Z,1004.95
2018-11-29T12:46:50.103Z,1004.90
2018-11-29T12:47:50.095Z,1004.88
2018-11-29T12:48:50.116Z,1004.84
2018-11-29T12:49:50.088Z,1004.82
2018-11-29T12:50:50.085Z,1004.80
2018-11-29T12:51:50.097Z,1004.82
2018-11-29T12:52:50.087Z,1004.75
2018-11-29T12:53:50.063Z,1004.69
2018-11-29T12:54:50.092Z,1004.66
2018-11-29T12:55:50.047Z,1004.64
2018-11-29T12:56:50.039Z,1004.65
2018-11-29T12:58:04.490Z,1004.61
2018-11-29T12:58:50.024Z,1004.59
2018-11-29T12:59:50.028Z,1004.59
2018-11-29T13:00:50.033Z,1004.52
2018-11-29T13:01:49.997Z,1004.48
2018-11-29T13:02:50.001Z,1004.47
2018-11-29T13:03:50.022Z,1004.48
2018-11-29T13:04:49.980Z,1004.42
2018-11-29T13:05:50.022Z,1004.47
2018-11-29T13:06:49.969Z,1004.45
2018-11-29T13:07:49.997Z,1004.45
2018-11-29T13:08:49.990Z,1004.39
2018-11-29T13:09:49.955Z,1004.40
2018-11-29T13:10:49.961Z,1004.40
2018-11-29T13:11:49.968Z,1004.39
2018-11-29T13:12:49.951Z,1004.37
2018-11-29T13:13:49.938Z,1004.31
2018-11-29T13:14:49.943Z,1004.27
2018-11-29T13:15:49.924Z,1004.27
2018-11-29T13:16:49.951Z,1004.26
2018-11-29T13:17:49.906Z,1004.25
2018-11-29T13:18:49.890Z,1004.21
2018-11-29T13:19:49.901Z,1004.18
2018-11-29T13:20:49.904Z,1004.17
2018-11-29T13:21:49.910Z,1004.12
2018-11-29T13:22:58.744Z,1004.15
2018-11-29T13:24:51.189Z,1004.06
2018-11-29T13:25:52.080Z,1004.07
2018-11-29T13:27:36.866Z,1003.96
2018-11-29T13:28:36.801Z,1003.99
2018-11-29T13:29:36.652Z,1003.88
2018-11-29T13:30:37.128Z,1003.89
2018-11-29T13:31:36.636Z,1003.86
2018-11-29T13:32:36.606Z,1003.85
2018-11-29T13:33:36.592Z,1003.86
2018-11-29T13:34:36.587Z,1003.88
2018-11-29T13:35:36.590Z,1003.87
2018-11-29T13:36:36.575Z,1003.84
2018-11-29T13:37:36.571Z,1003.80
2018-11-29T13:38:36.589Z,1003.83
2018-11-29T13:39:36.583Z,1003.82
2018-11-29T13:40:36.543Z,1003.81
2018-11-29T13:41:36.539Z,1003.75
2018-11-29T13:42:36.575Z,1003.67
2018-11-29T13:43:36.605Z,1003.67
2018-11-29T13:44:36.541Z,1003.68
2018-11-29T13:45:36.526Z,1003.61
2018-11-29T13:46:36.571Z,1003.65
2018-11-29T13:47:36.505Z,1003.63
2018-11-29T13:48:36.499Z,1003.61
2018-11-29T13:49:36.481Z,1003.64
2018-11-29T13:50:36.492Z,1003.62
2018-11-29T13:51:36.482Z,1003.68
2018-11-29T13:52:36.497Z,1003.66
2018-11-29T13:53:36.544Z,1003.71
2018-11-29T13:54:36.442Z,1003.75
2018-11-29T13:55:36.662Z,1003.78
2018-11-29T13:56:36.455Z,1003.85
2018-11-29T13:57:36.426Z,1003.86
2018-11-29T13:58:36.409Z,1003.81
2018-11-29T13:59:36.429Z,1003.79
2018-11-29T14:00:36.426Z,1003.79
2018-11-29T14:01:36.386Z,1003.85
2018-11-29T14:02:36.376Z,1003.87
2018-11-29T14:03:36.375Z,1003.93
2018-11-29T14:04:36.439Z,1003.93
2018-11-29T14:05:36.363Z,1003.89
2018-11-29T14:06:36.380Z,1003.80
2018-11-29T14:07:36.997Z,1003.71
2018-11-29T14:08:36.404Z,1003.61
2018-11-29T14:09:36.338Z,1003.69
2018-11-29T14:10:36.338Z,1003.81
2018-11-29T14:11:36.461Z,1003.88
2018-11-29T14:12:36.325Z,1003.87
2018-11-29T14:13:36.327Z,1003.79
2018-11-29T14:14:36.319Z,1003.66
2018-11-29T14:15:36.323Z,1003.65
2018-11-29T14:16:36.287Z,1003.65
2018-11-29T14:17:36.317Z,1003.63
2018-11-29T14:18:36.300Z,1003.69
2018-11-29T14:19:36.264Z,1003.72
2018-11-29T14:20:36.260Z,1003.69
2018-11-29T14:21:36.280Z,1003.62
2018-11-29T14:22:36.245Z,1003.55
2018-11-29T14:23:36.228Z,1003.56
2018-11-29T14:24:36.240Z,1003.60
2018-11-29T14:25:36.314Z,1003.68
2018-11-29T14:26:36.211Z,1003.74
2018-11-29T14:27:36.223Z,1003.72
2018-11-29T14:28:36.219Z,1003.69
2018-11-29T14:29:36.197Z,1003.65
2018-11-29T14:30:36.223Z,1003.57
2018-11-29T14:31:36.229Z,1003.51
2018-11-29T14:32:36.194Z,1003.51
2018-11-29T14:33:36.182Z,1003.55
2018-11-29T14:34:36.166Z,1003.54
2018-11-29T14:35:36.164Z,1003.57
2018-11-29T14:36:36.166Z,1003.57
2018-11-29T14:37:36.169Z,1003.51
2018-11-29T14:38:36.168Z,1003.47
2018-11-29T14:39:36.134Z,1003.47
2018-11-29T14:40:36.120Z,1003.44
2018-11-29T14:41:36.113Z,1003.48
2018-11-29T14:42:36.122Z,1003.50
2018-11-29T14:43:36.124Z,1003.58
2018-11-29T14:44:36.123Z,1003.65
2018-11-29T14:45:36.125Z,1003.70
2018-11-29T14:46:36.074Z,1003.75
2018-11-29T14:47:36.224Z,1003.74
2018-11-29T14:48:36.078Z,1003.66
2018-11-29T14:49:36.100Z,1003.60
2018-11-29T14:50:36.104Z,1003.62
2018-11-29T14:51:36.226Z,1003.59
2018-11-29T14:52:36.073Z,1003.57
2018-11-29T14:53:44.917Z,1003.49
2018-11-29T14:55:29.415Z,1003.44
2018-11-29T14:56:29.396Z,1003.44
2018-11-29T14:57:39.222Z,1003.52
2018-11-29T14:59:23.194Z,1003.57
2018-11-29T15:00:30.124Z,1003.60
2018-11-29T15:02:16.293Z,1003.42
2018-11-29T15:03:16.247Z,1003.39
2018-11-29T15:04:16.139Z,1003.37
2018-11-29T15:05:16.139Z,1003.50
2018-11-29T15:06:16.513Z,1003.58
2018-11-29T15:07:16.132Z,1003.66
2018-11-29T15:08:16.123Z,1003.62
2018-11-29T15:09:16.101Z,1003.60
2018-11-29T15:10:16.073Z,1003.61
2018-11-29T15:11:16.110Z,1003.61
2018-11-29T15:12:16.139Z,1003.62
2018-11-29T15:13:16.086Z,1003.66
2018-11-29T15:14:17.998Z,1003.66
2018-11-29T15:15:16.104Z,1003.66
2018-11-29T15:16:16.072Z,1003.66
2018-11-29T15:17:16.074Z,1003.69
2018-11-29T15:18:16.053Z,1003.72
2018-11-29T15:19:16.057Z,1003.76
2018-11-29T15:20:16.038Z,1003.76
2018-11-29T15:21:16.030Z,1003.77
2018-11-29T15:22:15.998Z,1003.81
2018-11-29T15:23:16.013Z,1003.85
2018-11-29T15:24:16.064Z,1003.88
2018-11-29T15:25:16.002Z,1003.81
2018-11-29T15:26:15.958Z,1003.81
2018-11-29T15:27:15.974Z,1003.79
2018-11-29T15:28:15.953Z,1003.73
2018-11-29T15:29:15.969Z,1003.72
2018-11-29T15:30:15.971Z,1003.75
2018-11-29T15:31:15.970Z,1003.80
2018-11-29T15:32:15.921Z,1003.80
2018-11-29T15:33:15.987Z,1003.79
2018-11-29T15:34:15.905Z,1003.79